Time;durP1;ratioP1;P1;durP2;ratioP2;P2;SDS_P1;SDS_P2;PMS_P1;PMS_P2;Temp;Humidity;BMP_temperature;BMP_pressure;BME280_temperature;BME280_humidity;BME280_pressure;Samples;Min_cycle;Max_cycle;Signal;HPM_P1;HPM_P2
2022/01/10 00:01:42;;;;;;;;;;;20.30;42.70;;;;;;5131030;27;19931;-47
2022/01/10 00:04:11;;;;;;;;;;;20.30;42.70;;;;;;5133127;27;20383;-46
2022/01/10 00:06:37;;;;;;;;;;;20.30;42.70;;;;;;5112401;27;20022;-51
2022/01/10 00:09:04;;;;;;;;;;;20.30;42.70;;;;;;5131246;27;19958;-50
2022/01/10 00:11:31;;;;;;;;;;;20.30;42.70;;;;;;5111498;27;19946;-53
2022/01/10 00:13:58;;;;;;;;;;;20.30;42.70;;;;;;5110918;27;19930;-46
2022/01/10 00:16:25;;;;;;;;;;;20.30;43.30;;;;;;5113458;27;19941;-50
2022/01/10 00:18:52;;;;;;;;;;;20.30;42.80;;;;;;5111330;27;19959;-46
2022/01/10 00:21:21;;;;;;;;;;;20.30;42.80;;;;;;5130302;27;19949;-51
2022/01/10 00:23:47;;;;;;;;;;;20.30;42.80;;;;;;5112809;27;20438;-47
2022/01/10 00:26:14;;;;;;;;;;;20.30;42.80;;;;;;5131431;27;19972;-47
2022/01/10 00:28:41;;;;;;;;;;;20.30;42.80;;;;;;5104445;27;20408;-46
2022/01/10 00:31:08;;;;;;;;;;;20.30;42.80;;;;;;5147283;27;19962;-49
2022/01/10 00:33:35;;;;;;;;;;;20.30;42.80;;;;;;5112248;27;20022;-50
2022/01/10 00:36:02;;;;;;;;;;;20.30;42.90;;;;;;5114741;27;19980;-52
2022/01/10 00:38:30;;;;;;;;;;;20.30;42.90;;;;;;5111863;27;19923;-46
2022/01/10 00:40:57;;;;;;;;;;;20.30;42.80;;;;;;5116771;27;20315;-47
2022/01/10 00:43:31;;;;;;;;;;;20.30;42.80;;;;;;5111188;27;20018;-44
2022/01/10 00:45:58;;;;;;;;;;;20.30;42.90;;;;;;5113461;27;19967;-47
2022/01/10 00:48:25;;;;;;;;;;;20.30;42.90;;;;;;5112851;27;19972;-47
2022/01/10 00:50:52;;;;;;;;;;;20.30;42.90;;;;;;5111809;27;19924;-46
2022/01/10 00:53:18;;;;;;;;;;;20.30;42.90;;;;;;5108992;27;20023;-47
2022/01/10 00:55:47;;;;;;;;;;;20.30;42.90;;;;;;5110627;27;19931;-50
2022/01/10 00:58:14;;;;;;;;;;;20.30;42.90;;;;;;5111166;27;20395;-51
2022/01/10 01:00:41;;;;;;;;;;;20.30;42.90;;;;;;5130962;27;19945;-46
2022/01/10 01:03:08;;;;;;;;;;;20.30;42.90;;;;;;5111582;27;20518;-46
2022/01/10 01:05:39;;;;;;;;;;;20.30;42.90;;;;;;5112107;27;19927;-50
2022/01/10 01:08:07;;;;;;;;;;;20.30;43.00;;;;;;5119476;27;19928;-53
2022/01/10 01:13:29;;;;;;;;;;;20.30;43.00;;;;;;5094832;27;19923;-46
2022/01/10 01:16:12;;;;;;;;;;;20.30;43.00;;;;;;5115999;27;19927;-52
2022/01/10 01:19:06;;;;;;;;;;;20.30;43.00;;;;;;5110959;27;19923;-54
2022/01/10 01:24:17;;;;;;;;;;;20.20;42.90;;;;;;5107741;27;19931;-47
2022/01/10 01:26:44;;;;;;;;;;;20.30;43.00;;;;;;5133150;27;19930;-48
2022/01/10 01:29:13;;;;;;;;;;;20.30;43.00;;;;;;5141274;27;19923;-50
2022/01/10 01:31:40;;;;;;;;;;;20.20;42.90;;;;;;5112747;27;19980;-50
2022/01/10 01:34:07;;;;;;;;;;;20.20;43.00;;;;;;5112671;27;19973;-49
2022/01/10 01:36:34;;;;;;;;;;;20.20;42.90;;;;;;5115321;27;20375;-48
2022/01/10 01:39:04;;;;;;;;;;;20.20;43.00;;;;;;5113113;27;19923;-48
2022/01/10 01:41:40;;;;;;;;;;;20.20;43.00;;;;;;5113093;27;19933;-51
2022/01/10 01:44:09;;;;;;;;;;;20.20;43.00;;;;;;5127777;27;20014;-51
2022/01/10 01:46:37;;;;;;;;;;;20.30;43.10;;;;;;5114868;27;19923;-49
2022/01/10 01:49:06;;;;;;;;;;;20.20;43.00;;;;;;5129629;27;21285;-51
2022/01/10 01:51:33;;;;;;;;;;;20.20;43.00;;;;;;5115987;27;19930;-47
2022/01/10 01:53:59;;;;;;;;;;;20.20;43.00;;;;;;5112230;28;19927;-48
2022/01/10 01:56:26;;;;;;;;;;;20.20;43.00;;;;;;5114135;27;19969;-46
2022/01/10 01:58:55;;;;;;;;;;;20.20;43.00;;;;;;5116996;27;19928;-47
2022/01/10 02:01:21;;;;;;;;;;;20.20;43.00;;;;;;5126860;27;19923;-53
2022/01/10 02:03:49;;;;;;;;;;;20.20;43.00;;;;;;5110471;28;20472;-45
2022/01/10 02:06:16;;;;;;;;;;;20.20;43.00;;;;;;5112709;28;20017;-48
2022/01/10 02:08:43;;;;;;;;;;;20.20;43.00;;;;;;5113852;28;20064;-47
2022/01/10 02:11:11;;;;;;;;;;;20.20;43.00;;;;;;5113008;27;20368;-46
2022/01/10 02:13:38;;;;;;;;;;;20.20;43.00;;;;;;5112558;28;20160;-51
2022/01/10 02:16:08;;;;;;;;;;;20.20;43.00;;;;;;5130434;28;20329;-52
2022/01/10 02:18:35;;;;;;;;;;;20.20;43.00;;;;;;5129805;28;20002;-48
2022/01/10 02:21:05;;;;;;;;;;;20.20;43.10;;;;;;5110209;28;19967;-46
2022/01/10 02:23:32;;;;;;;;;;;20.20;43.00;;;;;;5112199;28;20009;-54
2022/01/10 02:25:59;;;;;;;;;;;20.20;43.10;;;;;;5110427;28;19938;-47
2022/01/10 02:28:26;;;;;;;;;;;20.20;43.10;;;;;;5122911;28;19993;-48
2022/01/10 02:30:57;;;;;;;;;;;20.20;43.00;;;;;;5112348;28;20014;-48
2022/01/10 02:33:24;;;;;;;;;;;20.20;43.10;;;;;;5112596;28;19966;-54
2022/01/10 02:35:59;;;;;;;;;;;20.20;43.10;;;;;;5111066;28;19928;-50
2022/01/10 02:38:28;;;;;;;;;;;20.20;43.10;;;;;;5142330;27;19923;-47
2022/01/10 02:40:55;;;;;;;;;;;20.20;43.10;;;;;;5132581;27;19950;-54
2022/01/10 02:43:23;;;;;;;;;;;20.20;43.10;;;;;;5114368;27;19924;-47
2022/01/10 02:45:49;;;;;;;;;;;20.20;43.10;;;;;;5114428;27;19937;-50
2022/01/10 02:48:16;;;;;;;;;;;20.20;43.10;;;;;;5112726;27;19938;-47
2022/01/10 02:50:43;;;;;;;;;;;20.20;43.70;;;;;;5114885;27;19976;-46
2022/01/10 02:53:10;;;;;;;;;;;20.20;43.10;;;;;;5128855;27;19970;-49
2022/01/10 02:55:39;;;;;;;;;;;20.20;43.10;;;;;;5115329;27;19930;-49
2022/01/10 02:58:05;;;;;;;;;;;20.20;43.10;;;;;;5112292;27;20511;-46
2022/01/10 03:00:32;;;;;;;;;;;20.20;43.10;;;;;;5114773;27;20227;-48
2022/01/10 03:03:06;;;;;;;;;;;20.20;43.10;;;;;;5115470;27;19937;-48
2022/01/10 03:05:33;;;;;;;;;;;20.20;43.10;;;;;;5114033;27;19924;-53
2022/01/10 03:08:02;;;;;;;;;;;20.20;43.10;;;;;;5115516;27;19931;-51
2022/01/10 03:10:29;;;;;;;;;;;20.20;43.10;;;;;;5112287;27;19935;-51
2022/01/10 03:12:57;;;;;;;;;;;20.20;43.10;;;;;;5113425;27;19944;-47
2022/01/10 03:15:24;;;;;;;;;;;20.20;43.10;;;;;;5114697;27;20000;-51
2022/01/10 03:17:52;;;;;;;;;;;20.20;43.10;;;;;;5112015;27;19931;-51
2022/01/10 03:20:18;;;;;;;;;;;20.20;43.10;;;;;;5114239;27;19923;-47
2022/01/10 03:22:45;;;;;;;;;;;20.20;43.10;;;;;;5111039;27;20443;-50
2022/01/10 03:25:12;;;;;;;;;;;20.20;43.10;;;;;;5113118;27;19924;-49
2022/01/10 03:27:39;;;;;;;;;;;20.20;43.10;;;;;;5112764;27;19988;-50
2022/01/10 03:30:07;;;;;;;;;;;20.20;43.10;;;;;;5097302;27;19932;-52
2022/01/10 03:32:34;;;;;;;;;;;20.20;43.10;;;;;;5112253;27;19934;-46
2022/01/10 03:35:01;;;;;;;;;;;20.20;43.10;;;;;;5113474;27;20372;-50
2022/01/10 03:37:28;;;;;;;;;;;20.20;43.10;;;;;;5132611;27;19986;-49
2022/01/10 03:39:54;;;;;;;;;;;20.20;43.10;;;;;;5116551;27;19923;-48
2022/01/10 03:42:21;;;;;;;;;;;20.20;43.10;;;;;;5129945;27;19932;-48
2022/01/10 03:44:48;;;;;;;;;;;20.20;43.10;;;;;;5112097;27;19972;-48
2022/01/10 03:47:18;;;;;;;;;;;20.20;43.10;;;;;;5147739;27;20021;-47
2022/01/10 03:49:45;;;;;;;;;;;20.20;43.20;;;;;;5109497;27;20436;-49
2022/01/10 03:52:12;;;;;;;;;;;20.20;43.10;;;;;;5113839;27;19930;-48
2022/01/10 03:54:38;;;;;;;;;;;20.20;43.10;;;;;;5120729;27;20430;-49
2022/01/10 03:57:05;;;;;;;;;;;20.20;43.10;;;;;;5132726;27;19956;-48
2022/01/10 03:59:32;;;;;;;;;;;20.20;43.10;;;;;;5109419;27;19928;-48
2022/01/10 04:01:59;;;;;;;;;;;20.20;43.10;;;;;;5138063;27;19923;-51
2022/01/10 04:04:27;;;;;;;;;;;20.20;43.10;;;;;;5101074;27;19927;-49
2022/01/10 04:06:54;;;;;;;;;;;20.20;43.10;;;;;;5113829;27;19984;-51
2022/01/10 04:09:21;;;;;;;;;;;20.20;43.10;;;;;;5154783;27;20384;-52
2022/01/10 04:11:48;;;;;;;;;;;20.20;43.10;;;;;;5113490;27;19923;-48
2022/01/10 04:14:15;;;;;;;;;;;20.20;43.10;;;;;;5115976;27;19958;-47
2022/01/10 04:16:42;;;;;;;;;;;20.20;43.10;;;;;;5101774;27;20010;-48
2022/01/10 04:19:08;;;;;;;;;;;20.20;43.20;;;;;;5117963;27;19927;-51
2022/01/10 04:21:37;;;;;;;;;;;20.20;43.10;;;;;;5114474;27;19927;-52
2022/01/10 04:24:04;;;;;;;;;;;20.20;43.10;;;;;;5133521;27;20488;-45
2022/01/10 04:26:31;;;;;;;;;;;20.20;43.10;;;;;;5112828;27;19930;-46
2022/01/10 04:28:58;;;;;;;;;;;20.20;43.10;;;;;;5114077;27;20368;-47
2022/01/10 04:31:25;;;;;;;;;;;20.20;43.10;;;;;;5113395;27;19930;-47
2022/01/10 04:33:51;;;;;;;;;;;20.20;43.10;;;;;;5113922;27;20014;-47
2022/01/10 04:36:18;;;;;;;;;;;20.20;43.10;;;;;;5113660;27;19928;-51
2022/01/10 04:38:46;;;;;;;;;;;20.20;43.10;;;;;;5113534;27;19923;-49
2022/01/10 04:41:13;;;;;;;;;;;20.20;43.10;;;;;;5117936;27;19923;-47
2022/01/10 04:43:40;;;;;;;;;;;20.20;43.10;;;;;;5113350;27;19923;-45
2022/01/10 04:46:07;;;;;;;;;;;20.20;43.10;;;;;;5130350;27;19923;-47
2022/01/10 04:48:34;;;;;;;;;;;20.20;43.10;;;;;;5131049;27;20361;-54
2022/01/10 04:51:12;;;;;;;;;;;20.20;43.10;;;;;;5118837;27;19935;-50
2022/01/10 04:53:40;;;;;;;;;;;20.20;43.10;;;;;;5126469;27;19927;-47
2022/01/10 04:56:08;;;;;;;;;;;20.20;43.10;;;;;;5111317;27;19939;-49
2022/01/10 04:58:35;;;;;;;;;;;20.20;43.10;;;;;;5113335;27;19938;-47
2022/01/10 05:01:03;;;;;;;;;;;20.20;43.10;;;;;;5121162;27;19923;-48
2022/01/10 05:03:30;;;;;;;;;;;20.20;43.10;;;;;;5109386;27;20383;-47
2022/01/10 05:05:57;;;;;;;;;;;20.20;43.10;;;;;;5129854;27;19931;-48
2022/01/10 05:08:24;;;;;;;;;;;20.20;43.10;;;;;;5112205;27;19939;-51
2022/01/10 05:10:51;;;;;;;;;;;20.20;43.10;;;;;;5104890;27;19949;-47
2022/01/10 05:13:20;;;;;;;;;;;20.20;43.10;;;;;;5125171;27;19969;-45
2022/01/10 05:15:49;;;;;;;;;;;20.20;43.10;;;;;;5113693;27;19927;-46
2022/01/10 05:18:15;;;;;;;;;;;20.20;43.10;;;;;;5130034;27;19934;-52
2022/01/10 05:20:42;;;;;;;;;;;20.20;43.10;;;;;;5112747;27;19934;-54
2022/01/10 05:23:09;;;;;;;;;;;20.20;43.10;;;;;;5114478;27;19923;-45
2022/01/10 05:25:39;;;;;;;;;;;20.20;43.00;;;;;;5110332;27;19924;-45
2022/01/10 05:28:06;;;;;;;;;;;20.20;43.10;;;;;;5110882;27;19981;-48
2022/01/10 05:30:35;;;;;;;;;;;20.20;43.00;;;;;;5111373;27;20146;-54
2022/01/10 05:33:02;;;;;;;;;;;20.20;43.00;;;;;;5111386;27;19923;-46
2022/01/10 05:35:28;;;;;;;;;;;20.20;43.10;;;;;;5147677;27;19930;-48
2022/01/10 05:37:55;;;;;;;;;;;20.20;43.10;;;;;;5128615;27;20380;-49
2022/01/10 05:40:22;;;;;;;;;;;20.20;43.10;;;;;;5112327;27;20018;-47
2022/01/10 05:42:48;;;;;;;;;;;20.20;43.00;;;;;;5110136;27;19935;-45
2022/01/10 05:45:15;;;;;;;;;;;20.20;43.00;;;;;;5110030;27;19983;-48
2022/01/10 05:47:45;;;;;;;;;;;20.20;43.00;;;;;;5129064;27;19931;-51
2022/01/10 05:50:13;;;;;;;;;;;20.20;43.00;;;;;;5112297;27;19963;-48
2022/01/10 05:52:40;;;;;;;;;;;20.20;43.00;;;;;;5107822;27;19923;-48
2022/01/10 05:55:07;;;;;;;;;;;20.20;43.00;;;;;;5124142;27;19986;-54
2022/01/10 05:57:34;;;;;;;;;;;20.10;42.90;;;;;;5111163;27;19985;-54
2022/01/10 06:00:01;;;;;;;;;;;20.20;43.10;;;;;;5108118;28;19923;-46
2022/01/10 06:02:28;;;;;;;;;;;20.20;43.00;;;;;;5107143;28;20342;-47
2022/01/10 06:04:59;;;;;;;;;;;20.20;43.00;;;;;;5108988;28;19923;-51
2022/01/10 06:07:25;;;;;;;;;;;20.20;43.00;;;;;;5111016;28;19966;-53
2022/01/10 06:09:52;;;;;;;;;;;20.20;43.10;;;;;;5104858;28;19949;-50
2022/01/10 06:12:19;;;;;;;;;;;20.20;43.00;;;;;;5112887;28;19991;-45
2022/01/10 06:14:46;;;;;;;;;;;20.20;43.00;;;;;;5112316;27;19927;-47
2022/01/10 06:17:12;;;;;;;;;;;20.20;43.00;;;;;;5114863;27;19924;-46
2022/01/10 06:19:39;;;;;;;;;;;20.20;43.00;;;;;;5115901;27;19977;-46
2022/01/10 06:22:07;;;;;;;;;;;20.20;43.00;;;;;;5123213;27;20080;-51
2022/01/10 06:24:34;;;;;;;;;;;20.20;43.00;;;;;;5116226;27;19930;-47
2022/01/10 06:27:01;;;;;;;;;;;20.20;43.00;;;;;;5114951;27;19923;-51
2022/01/10 06:29:28;;;;;;;;;;;20.20;43.00;;;;;;5133527;27;20335;-45
2022/01/10 06:31:55;;;;;;;;;;;20.20;43.00;;;;;;5128854;27;19928;-47
2022/01/10 06:34:21;;;;;;;;;;;20.20;43.00;;;;;;5115264;27;19935;-50
2022/01/10 06:36:48;;;;;;;;;;;20.20;43.00;;;;;;5113609;27;19966;-48
2022/01/10 06:39:16;;;;;;;;;;;20.20;43.00;;;;;;5133169;27;20549;-47
2022/01/10 06:41:43;;;;;;;;;;;20.20;43.00;;;;;;5110405;27;20011;-50
2022/01/10 06:44:10;;;;;;;;;;;20.20;43.00;;;;;;5114299;27;19976;-45
2022/01/10 06:46:37;;;;;;;;;;;20.20;43.00;;;;;;5112423;27;20010;-48
2022/01/10 06:49:04;;;;;;;;;;;20.20;43.00;;;;;;5112381;27;19923;-53
2022/01/10 06:51:30;;;;;;;;;;;20.20;43.00;;;;;;5113905;27;19968;-50
2022/01/10 06:53:57;;;;;;;;;;;20.20;43.00;;;;;;5111932;27;19954;-49
2022/01/10 06:56:25;;;;;;;;;;;20.20;43.00;;;;;;5113946;27;19923;-48
2022/01/10 06:58:53;;;;;;;;;;;20.20;43.00;;;;;;5114840;27;20412;-49
2022/01/10 07:01:20;;;;;;;;;;;20.10;42.90;;;;;;5131673;27;19934;-51
2022/01/10 07:03:47;;;;;;;;;;;20.10;42.90;;;;;;5112560;27;19945;-50
2022/01/10 07:06:13;;;;;;;;;;;20.10;42.90;;;;;;5110317;27;20014;-47
2022/01/10 07:08:40;;;;;;;;;;;20.10;42.90;;;;;;5110958;27;19971;-46
2022/01/10 07:11:07;;;;;;;;;;;20.10;42.90;;;;;;5129279;27;19923;-53
2022/01/10 07:13:35;;;;;;;;;;;20.20;43.00;;;;;;5113434;27;19927;-50
2022/01/10 07:16:02;;;;;;;;;;;20.10;42.90;;;;;;5132594;27;20388;-49
2022/01/10 07:18:29;;;;;;;;;;;20.10;42.90;;;;;;5112714;27;19927;-44
2022/01/10 07:20:56;;;;;;;;;;;20.10;42.90;;;;;;5128231;27;20058;-47
2022/01/10 07:23:23;;;;;;;;;;;20.20;42.90;;;;;;5112578;27;20229;-53
2022/01/10 07:25:50;;;;;;;;;;;20.10;42.90;;;;;;5105134;28;19927;-48
2022/01/10 07:28:17;;;;;;;;;;;20.10;42.90;;;;;;5109995;27;19934;-48
2022/01/10 07:30:46;;;;;;;;;;;20.10;42.90;;;;;;5109452;27;19937;-49
2022/01/10 07:33:13;;;;;;;;;;;20.10;42.90;;;;;;5131419;27;20364;-50
2022/01/10 07:35:39;;;;;;;;;;;20.10;42.90;;;;;;5111932;27;19923;-51
2022/01/10 07:38:06;;;;;;;;;;;20.10;42.90;;;;;;5111201;27;19927;-53
2022/01/10 07:40:33;;;;;;;;;;;20.10;42.90;;;;;;5130552;27;19927;-53
2022/01/10 07:43:00;;;;;;;;;;;20.20;43.00;;;;;;5109455;27;19930;-49
2022/01/10 07:45:27;;;;;;;;;;;20.20;43.00;;;;;;5112089;27;20007;-47
2022/01/10 07:47:55;;;;;;;;;;;20.20;43.00;;;;;;5108150;27;19923;-50
2022/01/10 07:50:22;;;;;;;;;;;20.20;42.90;;;;;;5111931;27;20106;-52
2022/01/10 07:52:48;;;;;;;;;;;20.20;42.90;;;;;;5112779;27;19927;-50
2022/01/10 07:55:15;;;;;;;;;;;20.20;42.90;;;;;;5112104;27;19933;-52
2022/01/10 07:57:42;;;;;;;;;;;20.20;42.90;;;;;;5099503;27;19931;-52
2022/01/10 08:00:09;;;;;;;;;;;20.20;42.90;;;;;;5103306;27;19934;-54
2022/01/10 08:02:36;;;;;;;;;;;20.10;42.50;;;;;;5099132;27;20050;-55
2022/01/10 08:05:07;;;;;;;;;;;20.20;42.20;;;;;;5102298;27;19988;-57
2022/01/10 08:07:34;;;;;;;;;;;20.10;41.90;;;;;;5119854;27;20000;-56
2022/01/10 08:10:01;;;;;;;;;;;20.10;41.60;;;;;;5100013;27;19932;-52
2022/01/10 08:12:28;;;;;;;;;;;20.10;41.60;;;;;;5105984;27;19927;-52
2022/01/10 08:14:55;;;;;;;;;;;20.10;41.50;;;;;;5106735;27;19975;-56
2022/01/10 08:17:21;;;;;;;;;;;20.10;41.30;;;;;;5106820;27;20311;-53
2022/01/10 08:19:48;;;;;;;;;;;20.10;41.20;;;;;;5107241;27;20014;-56
2022/01/10 08:22:17;;;;;;;;;;;20.10;41.20;;;;;;5108138;27;19938;-55
2022/01/10 08:24:44;;;;;;;;;;;20.10;41.20;;;;;;5134128;27;19942;-52
2022/01/10 08:27:14;;;;;;;;;;;20.10;41.10;;;;;;5107153;27;20018;-55
2022/01/10 08:29:41;;;;;;;;;;;20.10;41.10;;;;;;5109910;27;19927;-56
2022/01/10 08:32:09;;;;;;;;;;;20.10;41.00;;;;;;5130564;27;20028;-56
2022/01/10 08:34:35;;;;;;;;;;;20.10;40.90;;;;;;5126893;27;19923;-55
2022/01/10 08:37:02;;;;;;;;;;;20.10;40.90;;;;;;5110294;27;19927;-54
2022/01/10 08:39:30;;;;;;;;;;;20.00;40.80;;;;;;5108099;27;19931;-53
2022/01/10 08:41:57;;;;;;;;;;;20.00;40.80;;;;;;5123491;27;20027;-54
2022/01/10 08:44:24;;;;;;;;;;;20.00;40.80;;;;;;5100001;27;19995;-58
2022/01/10 08:46:51;;;;;;;;;;;20.00;40.70;;;;;;5106675;27;20422;-57
2022/01/10 08:49:20;;;;;;;;;;;20.00;40.60;;;;;;5102997;27;19927;-56
2022/01/10 08:51:50;;;;;;;;;;;20.00;40.60;;;;;;5107612;27;19927;-57
2022/01/10 08:54:17;;;;;;;;;;;20.00;40.60;;;;;;5122045;27;19927;-60
2022/01/10 08:56:45;;;;;;;;;;;20.00;40.50;;;;;;5099447;27;19953;-59
2022/01/10 08:59:12;;;;;;;;;;;20.00;40.50;;;;;;5101367;27;20018;-55
2022/01/10 09:01:39;;;;;;;;;;;20.00;40.40;;;;;;5103276;27;19956;-54
2022/01/10 09:04:07;;;;;;;;;;;20.00;40.40;;;;;;5101947;27;19958;-57
2022/01/10 09:06:34;;;;;;;;;;;20.00;40.50;;;;;;5102942;27;20547;-57
2022/01/10 09:09:03;;;;;;;;;;;20.00;40.50;;;;;;5091397;28;20014;-59
2022/01/10 09:11:29;;;;;;;;;;;20.00;40.60;;;;;;5117046;27;19927;-55
2022/01/10 09:13:57;;;;;;;;;;;19.90;40.50;;;;;;5102458;27;19931;-54
2022/01/10 09:16:24;;;;;;;;;;;20.00;40.60;;;;;;5101116;27;19934;-56
2022/01/10 09:18:51;;;;;;;;;;;20.00;40.60;;;;;;5105234;27;19929;-58
2022/01/10 09:21:18;;;;;;;;;;;19.90;40.40;;;;;;5096451;27;20493;-55
2022/01/10 09:23:45;;;;;;;;;;;19.90;40.40;;;;;;5127406;27;20619;-52
2022/01/10 09:26:11;;;;;;;;;;;19.90;40.40;;;;;;5125388;27;20018;-53
2022/01/10 09:28:38;;;;;;;;;;;19.90;40.40;;;;;;5106878;27;20509;-56
2022/01/10 09:31:06;;;;;;;;;;;19.90;40.40;;;;;;5104191;27;19994;-56
2022/01/10 09:33:33;;;;;;;;;;;19.90;40.40;;;;;;5102846;27;19931;-62
2022/01/10 09:36:00;;;;;;;;;;;19.90;40.40;;;;;;5122525;27;20742;-54
2022/01/10 09:38:27;;;;;;;;;;;19.90;40.40;;;;;;5104888;27;20435;-51
2022/01/10 09:40:54;;;;;;;;;;;19.90;40.40;;;;;;5105429;27;19999;-53
2022/01/10 09:43:21;;;;;;;;;;;19.90;41.00;;;;;;5123112;27;20452;-51
2022/01/10 09:45:48;;;;;;;;;;;19.90;40.40;;;;;;5123683;27;20582;-55
2022/01/10 09:48:16;;;;;;;;;;;19.90;40.40;;;;;;5106541;27;19927;-59
2022/01/10 09:50:43;;;;;;;;;;;19.90;40.50;;;;;;5100587;27;19932;-54
2022/01/10 09:53:10;;;;;;;;;;;19.90;40.50;;;;;;5122062;27;19939;-56
2022/01/10 09:55:36;;;;;;;;;;;19.90;40.50;;;;;;5101733;28;19924;-54
2022/01/10 09:58:04;;;;;;;;;;;19.90;40.60;;;;;;5101296;27;20239;-55
2022/01/10 10:00:31;;;;;;;;;;;19.90;40.60;;;;;;5141386;27;19965;-58
2022/01/10 10:02:58;;;;;;;;;;;19.90;40.60;;;;;;5103670;28;19931;-55
2022/01/10 10:05:26;;;;;;;;;;;19.90;40.60;;;;;;5109361;27;19927;-57
2022/01/10 10:07:53;;;;;;;;;;;19.90;40.60;;;;;;5122930;28;19955;-52
2022/01/10 10:10:21;;;;;;;;;;;19.90;40.60;;;;;;5091486;28;20445;-47
2022/01/10 10:12:48;;;;;;;;;;;19.90;40.70;;;;;;5128199;27;20022;-47
2022/01/10 10:15:16;;;;;;;;;;;19.90;40.80;;;;;;5096467;28;19938;-46
2022/01/10 10:17:43;;;;;;;;;;;19.90;40.90;;;;;;5098307;28;19928;-45
2022/01/10 10:20:10;;;;;;;;;;;19.90;40.90;;;;;;5099017;28;20003;-47
2022/01/10 10:22:41;;;;;;;;;;;19.90;41.00;;;;;;5119054;28;19997;-50
2022/01/10 10:25:07;;;;;;;;;;;19.90;41.00;;;;;;5115102;28;19928;-43
2022/01/10 10:27:37;;;;;;;;;;;19.90;41.10;;;;;;5118903;28;19938;-46
2022/01/10 10:30:05;;;;;;;;;;;20.00;41.20;;;;;;5134907;27;20405;-46
2022/01/10 10:32:33;;;;;;;;;;;20.00;41.20;;;;;;5114736;28;20569;-51
2022/01/10 10:35:00;;;;;;;;;;;20.00;41.30;;;;;;5102621;28;20300;-47
2022/01/10 10:37:29;;;;;;;;;;;20.00;41.40;;;;;;5098600;28;20013;-46
2022/01/10 10:39:57;;;;;;;;;;;20.00;41.40;;;;;;5100518;28;20026;-44
2022/01/10 10:42:28;;;;;;;;;;;20.00;41.40;;;;;;5098795;28;19940;-53
2022/01/10 10:44:55;;;;;;;;;;;20.00;41.50;;;;;;5117501;28;19931;-43
2022/01/10 10:47:22;;;;;;;;;;;20.00;41.50;;;;;;5099167;28;20026;-49
2022/01/10 10:49:51;;;;;;;;;;;20.10;41.70;;;;;;5098541;28;19927;-46
2022/01/10 10:52:18;;;;;;;;;;;20.10;41.70;;;;;;5110584;28;19931;-51
2022/01/10 10:54:45;;;;;;;;;;;20.10;41.80;;;;;;5109557;28;20144;-53
2022/01/10 10:57:14;;;;;;;;;;;20.10;41.80;;;;;;5126413;27;19935;-46
2022/01/10 10:59:43;;;;;;;;;;;20.10;41.90;;;;;;5099741;28;20213;-47
2022/01/10 11:02:10;;;;;;;;;;;20.10;41.90;;;;;;5085864;27;20094;-45
2022/01/10 11:04:37;;;;;;;;;;;20.10;41.90;;;;;;5099004;27;19927;-51
2022/01/10 11:07:04;;;;;;;;;;;20.10;42.00;;;;;;5121731;27;19938;-46
2022/01/10 11:09:31;;;;;;;;;;;20.10;42.00;;;;;;5101836;27;19923;-45
2022/01/10 11:11:58;;;;;;;;;;;20.10;42.00;;;;;;5121836;27;20334;-46
2022/01/10 11:14:26;;;;;;;;;;;20.20;42.10;;;;;;5133600;27;20381;-50
2022/01/10 11:16:54;;;;;;;;;;;20.20;42.20;;;;;;5133555;27;19993;-53
2022/01/10 11:19:23;;;;;;;;;;;20.20;42.20;;;;;;5102477;27;20000;-51
2022/01/10 11:21:53;;;;;;;;;;;20.20;42.20;;;;;;5104884;27;19958;-48
2022/01/10 11:24:39;;;;;;;;;;;20.20;42.20;;;;;;5105390;27;19931;-48
2022/01/10 11:27:08;;;;;;;;;;;20.20;42.20;;;;;;5101393;27;19998;-49
2022/01/10 11:29:39;;;;;;;;;;;20.20;42.20;;;;;;5119276;27;20368;-47
2022/01/10 11:32:06;;;;;;;;;;;20.20;42.30;;;;;;5120578;27;19928;-49
2022/01/10 11:34:33;;;;;;;;;;;20.20;42.40;;;;;;5097775;27;19949;-46
2022/01/10 11:36:59;;;;;;;;;;;20.20;42.40;;;;;;5122687;27;20216;-49
2022/01/10 11:39:26;;;;;;;;;;;20.20;42.50;;;;;;5102743;27;19949;-50
2022/01/10 11:41:53;;;;;;;;;;;20.20;42.40;;;;;;5104392;27;19927;-44
2022/01/10 11:44:20;;;;;;;;;;;20.20;42.40;;;;;;5095504;27;19928;-44
2022/01/10 11:46:49;;;;;;;;;;;20.20;42.40;;;;;;5122763;27;20352;-46
2022/01/10 11:49:16;;;;;;;;;;;20.20;42.40;;;;;;5105228;27;19927;-44
2022/01/10 11:51:44;;;;;;;;;;;20.20;42.40;;;;;;5101072;27;20325;-50
2022/01/10 11:54:12;;;;;;;;;;;20.20;42.40;;;;;;5095839;27;20004;-48
2022/01/10 11:56:39;;;;;;;;;;;20.20;42.50;;;;;;5101523;27;19954;-49
2022/01/10 11:59:33;;;;;;;;;;;20.20;42.50;;;;;;5110406;27;19932;-49
2022/01/10 12:02:03;;;;;;;;;;;20.20;42.50;;;;;;5103556;28;19924;-47
2022/01/10 12:04:31;;;;;;;;;;;20.20;42.50;;;;;;5103583;27;20372;-48
2022/01/10 12:06:57;;;;;;;;;;;20.20;42.50;;;;;;5102735;27;20176;-44
2022/01/10 12:09:24;;;;;;;;;;;20.20;42.60;;;;;;5105746;27;19959;-47
2022/01/10 12:11:52;;;;;;;;;;;20.20;42.60;;;;;;5104115;27;20018;-50
2022/01/10 12:14:18;;;;;;;;;;;20.30;42.70;;;;;;5101515;27;19967;-47
2022/01/10 12:16:45;;;;;;;;;;;20.30;42.70;;;;;;5100004;28;19950;-48
2022/01/10 12:19:13;;;;;;;;;;;20.30;42.70;;;;;;5113501;27;20380;-45
2022/01/10 12:21:40;;;;;;;;;;;20.30;42.80;;;;;;5101719;27;19927;-46
2022/01/10 12:24:07;;;;;;;;;;;20.30;42.80;;;;;;5102302;27;19931;-50
2022/01/10 12:26:34;;;;;;;;;;;20.30;42.80;;;;;;5099530;27;20026;-54
2022/01/10 12:29:01;;;;;;;;;;;20.30;42.90;;;;;;5103529;27;19928;-50
2022/01/10 12:31:28;;;;;;;;;;;20.30;42.90;;;;;;5096935;27;19928;-45
2022/01/10 12:33:55;;;;;;;;;;;20.30;43.00;;;;;;5106761;27;20034;-54
2022/01/10 12:36:24;;;;;;;;;;;20.30;43.00;;;;;;5107751;27;19927;-55
2022/01/10 12:38:51;;;;;;;;;;;20.40;43.00;;;;;;5104484;27;20532;-57
2022/01/10 12:41:20;;;;;;;;;;;20.30;42.70;;;;;;5107590;27;20023;-57
2022/01/10 12:43:47;;;;;;;;;;;20.30;42.50;;;;;;5107115;27;19928;-54
2022/01/10 12:46:14;;;;;;;;;;;20.30;42.50;;;;;;5102599;27;19977;-59
2022/01/10 12:48:41;;;;;;;;;;;20.30;42.30;;;;;;5104431;27;19927;-56
2022/01/10 12:51:08;;;;;;;;;;;20.30;42.20;;;;;;5103885;27;19928;-54
2022/01/10 12:53:36;;;;;;;;;;;20.30;42.10;;;;;;5103319;27;19934;-55
2022/01/10 12:56:05;;;;;;;;;;;20.30;42.00;;;;;;5104066;27;20457;-51
2022/01/10 12:58:33;;;;;;;;;;;20.20;41.90;;;;;;5104252;27;19931;-58
2022/01/10 13:01:07;;;;;;;;;;;20.30;41.90;;;;;;5104563;27;19934;-59
2022/01/10 13:03:34;;;;;;;;;;;20.20;41.70;;;;;;5117717;27;19927;-54
2022/01/10 13:06:02;;;;;;;;;;;20.20;41.70;;;;;;5137405;27;19934;-56
2022/01/10 13:08:31;;;;;;;;;;;20.20;41.60;;;;;;5103308;27;19953;-57
2022/01/10 13:10:59;;;;;;;;;;;20.20;41.60;;;;;;5101917;27;19943;-54
2022/01/10 13:13:26;;;;;;;;;;;20.20;41.60;;;;;;5096156;28;19928;-57
2022/01/10 13:15:52;;;;;;;;;;;20.20;41.60;;;;;;5133348;27;19932;-51
2022/01/10 13:18:21;;;;;;;;;;;20.20;41.60;;;;;;5111637;27;20355;-56
2022/01/10 13:20:54;;;;;;;;;;;20.20;41.60;;;;;;5103964;28;20093;-57
2022/01/10 13:23:23;;;;;;;;;;;20.20;42.20;;;;;;5098682;27;19958;-51
2022/01/10 13:25:50;;;;;;;;;;;20.20;41.40;;;;;;5103585;27;19974;-56
2022/01/10 13:28:19;;;;;;;;;;;20.20;41.40;;;;;;5102332;27;19924;-58
2022/01/10 13:30:49;;;;;;;;;;;20.20;41.40;;;;;;5107583;27;20010;-57
2022/01/10 13:33:16;;;;;;;;;;;20.10;41.20;;;;;;5097433;27;19927;-56
2022/01/10 13:35:43;;;;;;;;;;;20.10;41.20;;;;;;5117926;27;19928;-57
2022/01/10 13:38:12;;;;;;;;;;;20.10;41.20;;;;;;5137334;27;19934;-56
2022/01/10 13:40:40;;;;;;;;;;;20.10;41.10;;;;;;5101712;27;19932;-55
2022/01/10 13:43:08;;;;;;;;;;;20.10;41.10;;;;;;5121400;27;19935;-56
2022/01/10 13:45:40;;;;;;;;;;;20.10;41.10;;;;;;5104080;27;19935;-54
2022/01/10 13:48:07;;;;;;;;;;;20.10;41.00;;;;;;5103439;27;19931;-58
2022/01/10 13:50:34;;;;;;;;;;;20.10;41.00;;;;;;5103704;28;19934;-55
2022/01/10 13:53:02;;;;;;;;;;;20.10;40.90;;;;;;5105959;27;19950;-55
2022/01/10 13:55:28;;;;;;;;;;;20.10;40.90;;;;;;5101059;27;19934;-57
2022/01/10 13:57:55;;;;;;;;;;;20.10;40.90;;;;;;5102146;27;20555;-51
2022/01/10 14:00:23;;;;;;;;;;;20.10;40.80;;;;;;5094225;28;19927;-59
2022/01/10 14:02:54;;;;;;;;;;;20.10;40.80;;;;;;5103299;27;19935;-59
2022/01/10 14:05:21;;;;;;;;;;;20.00;40.70;;;;;;5100232;27;19927;-54
2022/01/10 14:07:48;;;;;;;;;;;20.00;40.70;;;;;;5121677;28;20294;-56
2022/01/10 14:10:15;;;;;;;;;;;20.00;40.70;;;;;;5115724;28;19927;-53
2022/01/10 14:12:42;;;;;;;;;;;20.00;40.60;;;;;;5121526;28;19928;-59
2022/01/10 14:15:09;;;;;;;;;;;20.00;40.60;;;;;;5099715;28;19938;-57
2022/01/10 14:17:36;;;;;;;;;;;20.00;40.50;;;;;;5102285;28;19982;-57
2022/01/10 14:20:05;;;;;;;;;;;20.00;40.60;;;;;;5123814;28;20000;-58
2022/01/10 14:22:32;;;;;;;;;;;20.00;40.50;;;;;;5099184;28;20573;-56
2022/01/10 14:24:59;;;;;;;;;;;20.00;40.60;;;;;;5093574;28;19923;-58